createdAt,value
2023-03-04T00:00:38.485Z,24.80
2023-03-04T00:03:05.001Z,23.90
2023-03-04T00:05:31.643Z,25.90
2023-03-04T00:07:58.181Z,22.00
2023-03-04T00:10:24.787Z,22.80
2023-03-04T00:12:51.266Z,23.60
2023-03-04T00:15:17.744Z,27.60
2023-03-04T00:17:44.251Z,27.70
2023-03-04T00:20:11.710Z,28.20
2023-03-04T00:22:38.462Z,27.90
2023-03-04T00:25:05.362Z,29.30
2023-03-04T00:27:31.929Z,28.20
2023-03-04T00:29:58.451Z,29.50
2023-03-04T00:32:24.957Z,29.70
2023-03-04T00:34:51.483Z,26.50
2023-03-04T00:37:17.966Z,27.50
2023-03-04T00:39:44.461Z,27.80
2023-03-04T00:42:10.960Z,28.10
2023-03-04T00:44:37.441Z,28.60
2023-03-04T00:47:03.934Z,29.10
2023-03-04T00:49:30.397Z,28.90
2023-03-04T00:51:57.063Z,25.40
2023-03-04T00:54:23.530Z,23.40
2023-03-04T00:56:50.165Z,24.40
2023-03-04T00:59:16.650Z,27.50
2023-03-04T01:01:43.182Z,27.90
2023-03-04T01:04:09.872Z,25.80
2023-03-04T01:06:36.367Z,26.80
2023-03-04T01:09:02.878Z,25.30
2023-03-04T01:11:29.392Z,24.90
2023-03-04T01:13:55.934Z,24.40
2023-03-04T01:16:22.522Z,22.30
2023-03-04T01:18:49.023Z,24.40
2023-03-04T01:21:15.473Z,24.60
2023-03-04T01:23:41.944Z,25.70
2023-03-04T01:26:08.402Z,25.90
2023-03-04T01:28:34.964Z,25.50
2023-03-04T01:31:04.942Z,28.80
2023-03-04T01:33:31.568Z,27.00
2023-03-04T01:35:58.270Z,28.40
2023-03-04T01:38:24.798Z,26.20
2023-03-04T01:40:51.538Z,27.90
2023-03-04T01:43:25.597Z,28.20
2023-03-04T01:45:54.038Z,27.30
2023-03-04T01:48:27.112Z,25.00
2023-03-04T01:50:53.758Z,29.50
2023-03-04T01:53:26.061Z,25.20
2023-03-04T01:56:22.180Z,26.10
2023-03-04T01:59:19.126Z,26.80
2023-03-04T02:02:05.340Z,25.00
2023-03-04T02:04:34.405Z,24.00
2023-03-04T02:07:02.687Z,28.30
2023-03-04T02:09:30.596Z,25.80
2023-03-04T02:11:57.720Z,23.20
2023-03-04T02:14:24.771Z,22.90
2023-03-04T02:16:51.618Z,23.10
2023-03-04T02:19:27.379Z,22.40
2023-03-04T02:21:53.924Z,20.70
2023-03-04T02:24:35.125Z,22.30
2023-03-04T02:27:01.654Z,19.00
2023-03-04T02:29:28.785Z,19.00
2023-03-04T02:31:55.385Z,21.80
2023-03-04T02:34:27.386Z,19.40
2023-03-04T02:36:55.235Z,19.10
2023-03-04T02:39:21.683Z,22.90
2023-03-04T02:41:50.621Z,25.30
2023-03-04T02:44:20.277Z,22.20
2023-03-04T02:46:46.918Z,22.80
2023-03-04T02:49:13.931Z,24.40
2023-03-04T02:51:40.782Z,23.80
2023-03-04T02:54:19.438Z,22.40
2023-03-04T02:56:47.986Z,24.00
2023-03-04T02:59:14.894Z,21.30
2023-03-04T03:01:41.557Z,23.00
2023-03-04T03:04:08.320Z,21.50
2023-03-04T03:06:35.540Z,21.40
2023-03-04T03:09:02.385Z,25.00
2023-03-04T03:11:29.703Z,25.10
2023-03-04T03:13:56.918Z,25.40
2023-03-04T03:16:23.613Z,23.70
2023-03-04T03:18:50.256Z,25.50
2023-03-04T03:21:16.732Z,22.60
2023-03-04T03:23:43.213Z,23.50
2023-03-04T03:26:09.798Z,23.50
2023-03-04T03:28:36.596Z,22.00
2023-03-04T03:31:03.173Z,24.10
2023-03-04T03:33:30.922Z,25.20
2023-03-04T03:35:57.610Z,23.30
2023-03-04T03:38:24.155Z,24.80
2023-03-04T03:40:50.600Z,25.50
2023-03-04T03:43:17.126Z,24.60
2023-03-04T03:45:43.664Z,23.90
2023-03-04T03:48:10.143Z,23.10
2023-03-04T03:50:36.662Z,23.70
2023-03-04T03:53:03.334Z,23.90
2023-03-04T03:55:29.784Z,20.40
2023-03-04T03:57:56.253Z,22.70
2023-03-04T04:00:22.932Z,19.10
2023-03-04T04:02:49.496Z,17.50
2023-03-04T04:05:16.136Z,15.20
2023-03-04T04:07:42.720Z,14.50
2023-03-04T04:10:10.949Z,12.00
2023-03-04T04:12:37.521Z,13.90
2023-03-04T04:15:04.488Z,13.80
2023-03-04T04:17:30.985Z,12.80
2023-03-04T04:19:57.474Z,11.00
2023-03-04T04:22:23.999Z,10.40
2023-03-04T04:24:50.634Z,11.90
2023-03-04T04:27:17.167Z,10.20
2023-03-04T04:29:43.662Z,11.50
2023-03-04T04:32:10.203Z,10.90
2023-03-04T04:34:36.787Z,13.40
2023-03-04T04:37:03.243Z,14.70
2023-03-04T04:39:29.816Z,15.70
2023-03-04T04:41:56.358Z,16.30
2023-03-04T04:44:22.830Z,15.60
2023-03-04T04:46:49.418Z,15.90
2023-03-04T04:49:15.938Z,15.20
2023-03-04T04:51:42.399Z,14.40
2023-03-04T04:54:08.936Z,15.30
2023-03-04T04:56:35.450Z,13.80
2023-03-04T04:59:05.339Z,12.80
2023-03-04T05:01:32.237Z,13.40
2023-03-04T05:03:58.752Z,12.70
2023-03-04T05:06:25.347Z,14.20
2023-03-04T05:08:52.338Z,14.60
2023-03-04T05:11:19.691Z,14.40
2023-03-04T05:13:47.064Z,13.20
2023-03-04T05:16:13.943Z,12.30
2023-03-04T05:18:40.524Z,10.00
2023-03-04T05:21:07.272Z,10.60
2023-03-04T05:23:37.342Z,6.80
2023-03-04T05:26:06.140Z,7.20
2023-03-04T05:28:33.318Z,6.70
2023-03-04T05:31:00.253Z,7.70
2023-03-04T05:33:27.315Z,7.80
2023-03-04T05:35:53.900Z,6.20
2023-03-04T05:38:21.181Z,6.30
2023-03-04T05:40:48.736Z,6.20
2023-03-04T05:43:16.020Z,6.40
2023-03-04T05:45:42.749Z,5.20
2023-03-04T05:48:09.579Z,7.90
2023-03-04T05:50:36.517Z,10.10
2023-03-04T05:53:03.053Z,15.40
2023-03-04T05:55:29.600Z,13.80
2023-03-04T05:57:56.986Z,18.00
2023-03-04T06:00:23.517Z,19.10
2023-03-04T06:02:50.238Z,16.00
2023-03-04T06:05:16.839Z,19.10
2023-03-04T06:07:44.112Z,17.40
2023-03-04T06:10:15.486Z,17.70
2023-03-04T06:12:42.311Z,16.10
2023-03-04T06:15:09.519Z,16.90
2023-03-04T06:17:37.152Z,15.80
2023-03-04T06:20:04.835Z,13.20
2023-03-04T06:22:31.488Z,13.40
2023-03-04T06:24:57.967Z,14.40
2023-03-04T06:27:24.485Z,15.50
2023-03-04T06:29:50.957Z,17.00
2023-03-04T06:32:17.437Z,19.20
2023-03-04T06:34:44.384Z,15.80
2023-03-04T06:37:10.853Z,17.80
2023-03-04T06:39:37.357Z,18.00
2023-03-04T06:42:03.908Z,19.40
2023-03-04T06:44:30.572Z,18.30
2023-03-04T06:46:57.579Z,20.20
2023-03-04T06:49:24.151Z,16.80
2023-03-04T06:51:50.650Z,12.50
2023-03-04T06:54:17.784Z,13.60
2023-03-04T06:56:44.267Z,13.10
2023-03-04T06:59:10.759Z,15.40
2023-03-04T07:01:37.381Z,13.20
2023-03-04T07:04:04.169Z,13.90
2023-03-04T07:06:30.734Z,12.30
2023-03-04T07:08:57.883Z,11.40
2023-03-04T07:11:24.882Z,12.00
2023-03-04T07:13:52.048Z,10.70
2023-03-04T07:16:21.476Z,10.30
2023-03-04T07:18:48.794Z,12.40
2023-03-04T07:21:16.571Z,11.20
2023-03-04T07:23:43.968Z,11.60
2023-03-04T07:26:10.861Z,12.30
2023-03-04T07:28:38.863Z,15.30
2023-03-04T07:31:19.105Z,13.10
2023-03-04T07:33:45.821Z,11.60
2023-03-04T07:36:12.407Z,11.30
2023-03-04T07:38:38.917Z,9.80
2023-03-04T07:41:05.434Z,11.30
2023-03-04T07:43:31.899Z,8.40
2023-03-04T07:46:00.598Z,8.30
2023-03-04T07:48:27.925Z,9.60
2023-03-04T07:51:04.627Z,8.40
2023-03-04T07:53:32.263Z,9.50
2023-03-04T07:56:00.475Z,8.40
2023-03-04T07:58:28.823Z,9.60
2023-03-04T08:00:55.304Z,7.40
2023-03-04T08:03:21.848Z,8.90
2023-03-04T08:05:48.483Z,7.10
2023-03-04T08:08:17.299Z,7.50
2023-03-04T08:10:44.658Z,8.30
2023-03-04T08:13:11.152Z,6.60
2023-03-04T08:15:40.957Z,6.70
2023-03-04T08:18:07.503Z,8.60
2023-03-04T08:20:34.105Z,7.50
2023-03-04T08:23:00.578Z,8.90
2023-03-04T08:25:27.099Z,8.40
2023-03-04T08:27:53.597Z,7.10
2023-03-04T08:30:20.194Z,7.00
2023-03-04T08:32:46.829Z,6.70
2023-03-04T08:35:13.351Z,5.10
2023-03-04T08:37:39.841Z,6.20
2023-03-04T08:40:06.973Z,6.10
2023-03-04T08:42:33.541Z,6.10
2023-03-04T08:45:00.002Z,5.40
2023-03-04T08:47:26.550Z,6.30
2023-03-04T08:49:53.038Z,6.70
2023-03-04T08:52:19.637Z,8.20
2023-03-04T08:54:46.112Z,7.30
2023-03-04T08:57:12.602Z,7.20
2023-03-04T08:59:39.150Z,8.30
2023-03-04T09:02:05.712Z,9.70
2023-03-04T09:04:32.317Z,8.60
2023-03-04T09:06:58.760Z,8.50
2023-03-04T09:09:25.392Z,8.30
2023-03-04T09:11:51.895Z,8.90
2023-03-04T09:14:18.600Z,10.40
2023-03-04T09:16:45.344Z,10.10
2023-03-04T09:19:11.822Z,10.20
2023-03-04T09:21:38.336Z,9.90
2023-03-04T09:24:05.124Z,9.60
2023-03-04T09:26:32.048Z,9.10
2023-03-04T09:29:00.501Z,12.80
2023-03-04T09:31:28.827Z,13.00
2023-03-04T09:33:57.276Z,12.10
2023-03-04T09:36:24.174Z,14.20
2023-03-04T09:38:51.233Z,13.30
2023-03-04T09:41:45.779Z,15.00
2023-03-04T09:44:22.352Z,13.60
2023-03-04T09:46:50.201Z,14.60
2023-03-04T09:49:19.221Z,13.60
2023-03-04T09:52:03.093Z,14.00
2023-03-04T09:54:54.520Z,13.50
2023-03-04T09:57:23.897Z,14.30
2023-03-04T10:00:24.194Z,13.10
2023-03-04T10:03:09.153Z,13.70
2023-03-04T10:05:50.223Z,14.00
2023-03-04T10:08:39.566Z,12.70
2023-03-04T10:11:18.538Z,12.90
2023-03-04T10:13:51.750Z,12.70
2023-03-04T10:16:22.905Z,14.50
2023-03-04T10:18:56.027Z,12.80
2023-03-04T10:21:26.632Z,13.60
2023-03-04T10:23:53.217Z,14.70
2023-03-04T10:26:21.949Z,14.70
2023-03-04T10:28:49.705Z,12.50
2023-03-04T10:31:19.273Z,12.70
2023-03-04T10:33:45.854Z,13.70
2023-03-04T10:36:30.766Z,13.20
2023-03-04T10:38:58.876Z,12.80
2023-03-04T10:41:27.990Z,14.50
2023-03-04T10:44:09.452Z,14.00
2023-03-04T10:46:43.276Z,15.50
2023-03-04T10:49:10.926Z,14.20
2023-03-04T10:51:55.960Z,13.90
2023-03-04T10:54:47.447Z,15.30
2023-03-04T10:57:18.183Z,14.80
2023-03-04T11:02:25.997Z,13.10
2023-03-04T11:05:09.413Z,13.70
2023-03-04T11:07:54.474Z,13.80
2023-03-04T11:10:39.028Z,13.90
2023-03-04T11:13:11.118Z,12.30
2023-03-04T11:15:51.591Z,13.30
2023-03-04T11:20:49.575Z,12.50
2023-03-04T11:23:22.631Z,11.00
2023-03-04T11:26:13.779Z,10.40
2023-03-04T11:28:46.127Z,12.20
2023-03-04T11:31:27.910Z,12.50
2023-03-04T11:34:07.948Z,12.00
2023-03-04T11:39:32.879Z,12.10
2023-03-04T11:42:06.276Z,11.70
2023-03-04T11:44:32.828Z,12.50
2023-03-04T11:47:08.234Z,12.70
2023-03-04T11:49:53.537Z,11.90
2023-03-04T11:52:36.385Z,13.30
2023-03-04T11:55:18.663Z,12.80
2023-03-04T11:58:00.684Z,13.40
2023-03-04T12:00:39.068Z,12.60
2023-03-04T12:03:13.030Z,12.50
2023-03-04T12:06:17.478Z,13.20
2023-03-04T12:08:52.963Z,13.10
2023-03-04T12:11:25.457Z,13.10
2023-03-04T12:14:27.077Z,12.20
2023-03-04T12:20:02.162Z,13.20
2023-03-04T12:22:43.563Z,13.50
2023-03-04T12:25:13.177Z,15.00
2023-03-04T12:27:58.497Z,13.00
2023-03-04T12:30:27.644Z,14.70
2023-03-04T12:33:25.519Z,14.70
2023-03-04T12:36:29.838Z,11.20
2023-03-04T12:39:21.171Z,14.00
2023-03-04T12:42:25.089Z,12.80
2023-03-04T12:44:57.918Z,14.20
2023-03-04T12:47:43.064Z,14.00
2023-03-04T12:50:30.523Z,11.90
2023-03-04T12:53:20.484Z,12.50
2023-03-04T12:55:47.925Z,12.70
2023-03-04T12:58:25.656Z,13.90
2023-03-04T13:00:55.699Z,11.40
2023-03-04T13:03:37.484Z,11.30
2023-03-04T13:08:59.497Z,12.20
2023-03-04T13:11:25.937Z,11.20
2023-03-04T13:14:07.418Z,12.80
2023-03-04T13:16:39.687Z,13.40
2023-03-04T13:19:45.062Z,14.00
2023-03-04T13:22:36.345Z,11.30
2023-03-04T13:25:41.389Z,11.00
2023-03-04T13:28:10.656Z,12.00
2023-03-04T13:30:37.100Z,12.50
2023-03-04T13:33:09.506Z,10.00
2023-03-04T13:35:54.735Z,14.70
2023-03-04T13:38:24.116Z,11.60
2023-03-04T13:41:15.446Z,12.20
2023-03-04T13:43:44.299Z,10.70
2023-03-04T13:46:19.709Z,12.60
2023-03-04T13:48:52.321Z,10.50
2023-03-04T13:51:50.907Z,11.00
2023-03-04T13:54:29.930Z,10.10
2023-03-04T13:57:19.444Z,10.20
2023-03-04T13:59:56.929Z,9.10
2023-03-04T14:02:25.275Z,10.40
2023-03-04T14:04:54.868Z,9.80
2023-03-04T14:07:27.173Z,8.20
2023-03-04T14:10:07.669Z,8.30
2023-03-04T14:12:41.154Z,8.80
2023-03-04T14:15:13.368Z,7.40
2023-03-04T14:17:44.399Z,7.30
2023-03-04T14:20:29.734Z,8.50
2023-03-04T14:22:57.805Z,6.30
2023-03-04T14:25:29.616Z,8.00
2023-03-04T14:28:13.460Z,7.50
2023-03-04T14:30:51.100Z,6.70
2023-03-04T14:33:29.447Z,7.30
2023-03-04T14:36:02.463Z,6.90
2023-03-04T14:38:38.830Z,7.40
2023-03-04T14:41:10.665Z,7.20
2023-03-04T14:43:48.625Z,7.10
2023-03-04T14:46:17.552Z,7.10
2023-03-04T14:48:49.999Z,7.00
2023-03-04T14:51:44.497Z,6.50
2023-03-04T14:54:43.388Z,8.80
2023-03-04T14:57:26.290Z,8.20
2023-03-04T14:59:53.818Z,7.80
2023-03-04T15:02:28.808Z,8.00
2023-03-04T15:04:55.543Z,8.20
2023-03-04T15:07:29.407Z,7.70
2023-03-04T15:09:56.217Z,7.90
2023-03-04T15:12:28.787Z,8.00
2023-03-04T15:14:58.114Z,7.90
2023-03-04T15:17:37.736Z,8.40
2023-03-04T15:20:07.027Z,7.90
2023-03-04T15:22:34.994Z,9.70
2023-03-04T15:25:01.727Z,8.40
2023-03-04T15:27:29.857Z,8.10
2023-03-04T15:29:58.930Z,8.60
2023-03-04T15:32:26.645Z,9.50
2023-03-04T15:34:53.212Z,9.00
2023-03-04T15:37:26.621Z,8.70
2023-03-04T15:39:54.605Z,8.50
2023-03-04T15:42:21.128Z,9.10
2023-03-04T15:44:47.789Z,9.80
2023-03-04T15:47:14.568Z,9.40
2023-03-04T15:49:43.948Z,8.90
2023-03-04T15:52:21.221Z,9.50
2023-03-04T15:54:49.267Z,8.40
2023-03-04T15:57:26.455Z,9.10
2023-03-04T15:59:53.741Z,9.10
2023-03-04T16:02:25.693Z,8.90
2023-03-04T16:04:52.312Z,8.00
2023-03-04T16:07:21.021Z,8.90
2023-03-04T16:09:59.040Z,9.30
2023-03-04T16:12:27.004Z,8.90
2023-03-04T16:14:53.792Z,9.20
2023-03-04T16:17:20.384Z,9.30
2023-03-04T16:19:47.134Z,9.20
2023-03-04T16:22:23.574Z,9.10
2023-03-04T16:24:52.109Z,9.40
2023-03-04T16:27:19.110Z,11.00
2023-03-04T16:29:45.588Z,9.80
2023-03-04T16:32:12.147Z,9.20
2023-03-04T16:34:38.877Z,7.50
2023-03-04T16:37:16.080Z,8.70
2023-03-04T16:39:43.783Z,8.90
2023-03-04T16:42:15.082Z,9.70
2023-03-04T16:44:41.574Z,7.80
2023-03-04T16:47:08.171Z,8.60
2023-03-04T16:49:34.716Z,8.80
2023-03-04T16:52:01.365Z,7.80
2023-03-04T16:54:31.365Z,7.70
2023-03-04T16:56:59.076Z,8.90
2023-03-04T16:59:26.009Z,7.30
2023-03-04T17:01:53.886Z,9.00
2023-03-04T17:04:21.391Z,9.10
2023-03-04T17:06:48.024Z,9.10
2023-03-04T17:09:14.549Z,8.40
2023-03-04T17:11:41.173Z,9.10
2023-03-04T17:14:07.810Z,9.80
2023-03-04T17:16:34.290Z,8.10
2023-03-04T17:19:00.761Z,10.20
2023-03-04T17:21:27.550Z,7.90
2023-03-04T17:23:54.335Z,10.30
2023-03-04T17:26:20.836Z,7.70
2023-03-04T17:28:49.350Z,8.30
2023-03-04T17:31:18.496Z,8.90
2023-03-04T17:33:45.773Z,9.40
2023-03-04T17:36:14.092Z,9.00
2023-03-04T17:38:41.398Z,9.40
2023-03-04T17:41:11.472Z,10.00
2023-03-04T17:43:37.955Z,9.30
2023-03-04T17:46:07.119Z,10.10
2023-03-04T17:48:33.718Z,9.80
2023-03-04T17:51:00.172Z,9.10
2023-03-04T17:53:26.980Z,9.30
2023-03-04T17:55:56.001Z,8.50
2023-03-04T17:58:23.755Z,7.90
2023-03-04T18:00:53.028Z,9.10
2023-03-04T18:03:19.815Z,8.10
2023-03-04T18:05:46.360Z,9.10
2023-03-04T18:08:12.872Z,10.30
2023-03-04T18:10:39.446Z,8.90
2023-03-04T18:13:05.933Z,9.40
2023-03-04T18:15:32.531Z,10.90
2023-03-04T18:17:59.002Z,10.40
2023-03-04T18:20:26.396Z,10.80
2023-03-04T18:22:52.873Z,9.70
2023-03-04T18:25:19.702Z,9.80
2023-03-04T18:27:46.186Z,9.50
2023-03-04T18:30:15.319Z,10.30
2023-03-04T18:32:51.456Z,9.60
2023-03-04T18:35:19.312Z,8.90
2023-03-04T18:37:46.073Z,11.20
2023-03-04T18:40:13.237Z,9.20
2023-03-04T18:42:39.822Z,9.90
2023-03-04T18:45:07.102Z,10.90
2023-03-04T18:47:34.148Z,10.70
2023-03-04T18:50:00.690Z,11.00
2023-03-04T18:52:27.318Z,10.40
2023-03-04T18:54:53.786Z,8.30
2023-03-04T18:57:20.382Z,10.80
2023-03-04T18:59:51.304Z,7.90
2023-03-04T19:02:26.593Z,8.70
2023-03-04T19:04:54.936Z,9.80
2023-03-04T19:07:21.398Z,9.70
2023-03-04T19:09:47.870Z,9.10
2023-03-04T19:12:14.340Z,9.30
2023-03-04T19:14:40.947Z,8.50
2023-03-04T19:17:07.438Z,8.70
2023-03-04T19:19:33.955Z,7.60
2023-03-04T19:22:00.437Z,7.60
2023-03-04T19:24:26.937Z,8.30
2023-03-04T19:26:53.547Z,6.20
2023-03-04T19:29:20.064Z,5.80
2023-03-04T19:31:46.651Z,7.20
2023-03-04T19:34:13.184Z,5.70
2023-03-04T19:36:39.698Z,6.20
2023-03-04T19:39:06.615Z,6.80
2023-03-04T19:41:33.122Z,4.20
2023-03-04T19:43:59.597Z,5.60
2023-03-04T19:46:26.880Z,6.30
2023-03-04T19:48:53.664Z,5.90
2023-03-04T19:51:23.342Z,6.00
2023-03-04T19:53:49.830Z,5.40
2023-03-04T19:56:16.706Z,5.60
2023-03-04T19:58:43.241Z,5.60
2023-03-04T20:01:23.699Z,5.00
2023-03-04T20:03:50.296Z,5.70
2023-03-04T20:06:16.812Z,5.40
2023-03-04T20:08:43.260Z,4.60
2023-03-04T20:11:13.179Z,5.20
2023-03-04T20:13:39.776Z,4.00
2023-03-04T20:16:12.973Z,5.20
2023-03-04T20:18:39.728Z,4.80
2023-03-04T20:21:06.890Z,4.10
2023-03-04T20:23:33.771Z,4.50
2023-03-04T20:26:01.604Z,5.50
2023-03-04T20:28:28.693Z,6.20
2023-03-04T20:31:16.623Z,5.60
2023-03-04T20:33:44.650Z,4.30
2023-03-04T20:36:11.126Z,5.30
2023-03-04T20:38:37.591Z,4.00
2023-03-04T20:41:04.185Z,5.30
2023-03-04T20:43:30.641Z,4.40
2023-03-04T20:46:29.272Z,5.70
2023-03-04T20:48:58.167Z,5.10
2023-03-04T20:51:26.213Z,4.10
2023-03-04T20:53:52.904Z,5.30
2023-03-04T20:56:19.441Z,6.10
2023-03-04T20:58:45.934Z,4.80
2023-03-04T21:01:13.562Z,3.80
2023-03-04T21:03:40.540Z,5.00
2023-03-04T21:06:09.587Z,5.20
2023-03-04T21:08:36.641Z,5.30
2023-03-04T21:11:03.297Z,6.20
2023-03-04T21:13:29.795Z,5.60
2023-03-04T21:15:57.854Z,5.70
2023-03-04T21:18:29.528Z,4.90
2023-03-04T21:23:22.557Z,5.20
2023-03-04T21:25:49.118Z,5.00
2023-03-04T21:28:16.094Z,5.20
2023-03-04T21:30:42.893Z,3.40
2023-03-04T21:33:17.935Z,5.80
2023-03-04T21:35:45.586Z,5.30
2023-03-04T21:38:12.130Z,4.80
2023-03-04T21:40:38.903Z,5.20
2023-03-04T21:43:05.423Z,5.30
2023-03-04T21:45:31.957Z,5.30
2023-03-04T21:47:58.533Z,4.20
2023-03-04T21:50:25.019Z,5.20
2023-03-04T21:52:51.464Z,5.60
2023-03-04T21:55:20.328Z,5.60
2023-03-04T21:57:46.986Z,5.50
2023-03-04T22:00:13.976Z,5.50
2023-03-04T22:02:40.462Z,5.20
2023-03-04T22:05:07.279Z,5.20
2023-03-04T22:07:33.750Z,5.00
2023-03-04T22:10:00.374Z,4.80
2023-03-04T22:12:26.821Z,5.00
2023-03-04T22:14:53.810Z,4.80
2023-03-04T22:17:20.358Z,4.90
2023-03-04T22:19:46.953Z,5.20
2023-03-04T22:22:13.436Z,4.90
2023-03-04T22:24:40.069Z,5.40
2023-03-04T22:27:06.637Z,5.20
2023-03-04T22:29:33.149Z,5.50
2023-03-04T22:31:59.763Z,4.90
2023-03-04T22:34:26.277Z,5.40
2023-03-04T22:36:52.766Z,5.00
2023-03-04T22:39:19.672Z,4.90
2023-03-04T22:41:46.250Z,4.60
2023-03-04T22:44:12.737Z,4.50
2023-03-04T22:46:39.919Z,4.90
2023-03-04T22:49:08.933Z,5.10
2023-03-04T22:51:35.690Z,5.00
2023-03-04T22:54:02.193Z,5.40
2023-03-04T22:56:28.666Z,5.60
2023-03-04T22:58:55.257Z,5.50
2023-03-04T23:01:21.800Z,5.00
2023-03-04T23:03:49.178Z,4.30
2023-03-04T23:06:19.173Z,5.40
2023-03-04T23:08:47.328Z,5.30
2023-03-04T23:11:18.041Z,6.10
2023-03-04T23:13:44.750Z,5.30
2023-03-04T23:16:12.996Z,5.70
2023-03-04T23:18:41.019Z,5.10
2023-03-04T23:21:09.096Z,4.70
2023-03-04T23:23:36.080Z,5.00
2023-03-04T23:26:03.596Z,6.00
2023-03-04T23:28:30.141Z,4.80
2023-03-04T23:30:56.738Z,5.40
2023-03-04T23:33:23.289Z,4.70
2023-03-04T23:35:49.833Z,4.20
2023-03-04T23:38:16.345Z,4.20
2023-03-04T23:40:42.825Z,4.50
2023-03-04T23:43:09.293Z,4.40
2023-03-04T23:45:37.578Z,3.90
2023-03-04T23:48:04.263Z,4.30
2023-03-04T23:50:30.732Z,4.50
2023-03-04T23:52:57.192Z,4.50
2023-03-04T23:55:23.743Z,4.20
2023-03-04T23:57:50.278Z,3.40
